sensor_id;sensor_type;location;lat;lon;timestamp;P1;durP1;ratioP1;P2;durP2;ratioP2
41293;SDS011;27037;52.010;4.446;2024-02-15T00:00:41;26.27;;;7.00;;
41293;SDS011;27037;52.010;4.446;2024-02-15T00:03:08;20.15;;;7.00;;
41293;SDS011;27037;52.010;4.446;2024-02-15T00:05:38;20.48;;;7.07;;
41293;SDS011;27037;52.010;4.446;2024-02-15T00:08:04;24.85;;;7.43;;
41293;SDS011;27037;52.010;4.446;2024-02-15T00:10:31;24.58;;;7.80;;
41293;SDS011;27037;52.010;4.446;2024-02-15T00:12:56;27.65;;;9.88;;
41293;SDS011;27037;52.010;4.446;2024-02-15T00:15:22;26.50;;;11.73;;
41293;SDS011;27037;52.010;4.446;2024-02-15T00:17:48;27.45;;;10.82;;
41293;SDS011;27037;52.010;4.446;2024-02-15T00:20:13;27.73;;;9.60;;
41293;SDS011;27037;52.010;4.446;2024-02-15T00:22:39;20.25;;;9.05;;
41293;SDS011;27037;52.010;4.446;2024-02-15T00:25:08;18.92;;;8.48;;
41293;SDS011;27037;52.010;4.446;2024-02-15T00:27:38;28.98;;;8.43;;
41293;SDS011;27037;52.010;4.446;2024-02-15T00:30:04;19.40;;;7.32;;
41293;SDS011;27037;52.010;4.446;2024-02-15T00:32:32;22.33;;;6.80;;
41293;SDS011;27037;52.010;4.446;2024-02-15T00:34:58;15.57;;;5.95;;
41293;SDS011;27037;52.010;4.446;2024-02-15T00:37:24;16.67;;;6.18;;
41293;SDS011;27037;52.010;4.446;2024-02-15T00:39:49;19.27;;;6.40;;
41293;SDS011;27037;52.010;4.446;2024-02-15T00:42:15;19.58;;;6.72;;
41293;SDS011;27037;52.010;4.446;2024-02-15T00:44:41;17.63;;;6.43;;
41293;SDS011;27037;52.010;4.446;2024-02-15T00:47:07;19.88;;;7.15;;
41293;SDS011;27037;52.010;4.446;2024-02-15T00:49:37;16.98;;;7.68;;
41293;SDS011;27037;52.010;4.446;2024-02-15T00:52:03;16.80;;;8.25;;
41293;SDS011;27037;52.010;4.446;2024-02-15T00:54:28;26.67;;;9.15;;
41293;SDS011;27037;52.010;4.446;2024-02-15T00:56:54;20.52;;;8.85;;
41293;SDS011;27037;52.010;4.446;2024-02-15T00:59:20;20.88;;;9.10;;
41293;SDS011;27037;52.010;4.446;2024-02-15T01:01:45;21.70;;;9.93;;
41293;SDS011;27037;52.010;4.446;2024-02-15T01:04:12;22.85;;;10.07;;
41293;SDS011;27037;52.010;4.446;2024-02-15T01:06:38;22.50;;;9.88;;
41293;SDS011;27037;52.010;4.446;2024-02-15T01:09:04;27.33;;;10.63;;
41293;SDS011;27037;52.010;4.446;2024-02-15T01:11:30;21.00;;;9.93;;
41293;SDS011;27037;52.010;4.446;2024-02-15T01:13:59;21.52;;;9.65;;
41293;SDS011;27037;52.010;4.446;2024-02-15T01:16:25;18.60;;;9.55;;
41293;SDS011;27037;52.010;4.446;2024-02-15T01:18:50;22.08;;;10.10;;
41293;SDS011;27037;52.010;4.446;2024-02-15T01:21:16;24.48;;;10.85;;
41293;SDS011;27037;52.010;4.446;2024-02-15T01:23:42;22.17;;;9.93;;
41293;SDS011;27037;52.010;4.446;2024-02-15T01:26:09;21.30;;;10.00;;
41293;SDS011;27037;52.010;4.446;2024-02-15T01:28:35;21.92;;;9.40;;
41293;SDS011;27037;52.010;4.446;2024-02-15T01:31:01;20.80;;;10.10;;
41293;SDS011;27037;52.010;4.446;2024-02-15T01:33:26;23.67;;;10.30;;
41293;SDS011;27037;52.010;4.446;2024-02-15T01:35:52;22.48;;;9.32;;
41293;SDS011;27037;52.010;4.446;2024-02-15T01:38:18;21.02;;;9.45;;
41293;SDS011;27037;52.010;4.446;2024-02-15T01:40:44;27.83;;;10.35;;
41293;SDS011;27037;52.010;4.446;2024-02-15T01:43:12;21.17;;;10.15;;
41293;SDS011;27037;52.010;4.446;2024-02-15T01:45:37;18.77;;;9.60;;
41293;SDS011;27037;52.010;4.446;2024-02-15T01:48:03;26.42;;;9.90;;
41293;SDS011;27037;52.010;4.446;2024-02-15T01:50:30;22.65;;;9.55;;
41293;SDS011;27037;52.010;4.446;2024-02-15T01:52:59;16.77;;;9.52;;
41293;SDS011;27037;52.010;4.446;2024-02-15T01:55:28;17.05;;;8.63;;
41293;SDS011;27037;52.010;4.446;2024-02-15T01:57:54;24.35;;;9.38;;
41293;SDS011;27037;52.010;4.446;2024-02-15T02:00:20;17.48;;;9.32;;
41293;SDS011;27037;52.010;4.446;2024-02-15T02:02:46;24.65;;;9.18;;
41293;SDS011;27037;52.010;4.446;2024-02-15T02:05:12;22.70;;;8.10;;
41293;SDS011;27037;52.010;4.446;2024-02-15T02:07:38;17.80;;;7.20;;
41293;SDS011;27037;52.010;4.446;2024-02-15T02:10:04;25.13;;;7.80;;
41293;SDS011;27037;52.010;4.446;2024-02-15T02:12:30;23.88;;;7.78;;
41293;SDS011;27037;52.010;4.446;2024-02-15T02:14:56;19.58;;;7.88;;
41293;SDS011;27037;52.010;4.446;2024-02-15T02:17:22;19.60;;;7.40;;
41293;SDS011;27037;52.010;4.446;2024-02-15T02:19:48;23.10;;;7.53;;
41293;SDS011;27037;52.010;4.446;2024-02-15T02:22:17;18.67;;;7.93;;
41293;SDS011;27037;52.010;4.446;2024-02-15T02:24:53;19.67;;;7.35;;
41293;SDS011;27037;52.010;4.446;2024-02-15T02:27:19;26.33;;;7.40;;
41293;SDS011;27037;52.010;4.446;2024-02-15T02:29:45;24.20;;;7.82;;
41293;SDS011;27037;52.010;4.446;2024-02-15T02:32:11;18.90;;;7.55;;
41293;SDS011;27037;52.010;4.446;2024-02-15T02:34:37;16.98;;;7.57;;
41293;SDS011;27037;52.010;4.446;2024-02-15T02:37:03;19.52;;;7.13;;
41293;SDS011;27037;52.010;4.446;2024-02-15T02:39:30;17.75;;;7.50;;
41293;SDS011;27037;52.010;4.446;2024-02-15T02:41:56;19.23;;;6.70;;
41293;SDS011;27037;52.010;4.446;2024-02-15T02:44:23;16.42;;;6.72;;
41293;SDS011;27037;52.010;4.446;2024-02-15T02:46:48;16.38;;;6.60;;
41293;SDS011;27037;52.010;4.446;2024-02-15T02:49:14;20.42;;;6.85;;
41293;SDS011;27037;52.010;4.446;2024-02-15T02:51:39;21.45;;;6.85;;
41293;SDS011;27037;52.010;4.446;2024-02-15T02:54:05;20.35;;;7.43;;
41293;SDS011;27037;52.010;4.446;2024-02-15T02:56:31;19.52;;;6.85;;
41293;SDS011;27037;52.010;4.446;2024-02-15T02:58:57;23.30;;;6.63;;
41293;SDS011;27037;52.010;4.446;2024-02-15T03:01:23;24.00;;;7.40;;
41293;SDS011;27037;52.010;4.446;2024-02-15T03:03:52;21.77;;;7.03;;
41293;SDS011;27037;52.010;4.446;2024-02-15T03:06:20;19.70;;;7.45;;
41293;SDS011;27037;52.010;4.446;2024-02-15T03:08:46;21.27;;;6.82;;
41293;SDS011;27037;52.010;4.446;2024-02-15T03:11:12;23.80;;;6.78;;
41293;SDS011;27037;52.010;4.446;2024-02-15T03:13:39;18.38;;;6.22;;
41293;SDS011;27037;52.010;4.446;2024-02-15T03:16:05;20.92;;;6.55;;
41293;SDS011;27037;52.010;4.446;2024-02-15T03:18:31;19.00;;;7.55;;
41293;SDS011;27037;52.010;4.446;2024-02-15T03:20:58;15.43;;;6.43;;
41293;SDS011;27037;52.010;4.446;2024-02-15T03:23:23;22.13;;;7.47;;
41293;SDS011;27037;52.010;4.446;2024-02-15T03:25:49;18.45;;;7.03;;
41293;SDS011;27037;52.010;4.446;2024-02-15T03:28:15;18.65;;;7.70;;
41293;SDS011;27037;52.010;4.446;2024-02-15T03:30:41;18.17;;;7.22;;
41293;SDS011;27037;52.010;4.446;2024-02-15T03:33:08;19.05;;;7.38;;
41293;SDS011;27037;52.010;4.446;2024-02-15T03:35:33;20.45;;;7.85;;
41293;SDS011;27037;52.010;4.446;2024-02-15T03:37:59;25.05;;;8.60;;
41293;SDS011;27037;52.010;4.446;2024-02-15T03:40:26;19.55;;;8.32;;
41293;SDS011;27037;52.010;4.446;2024-02-15T03:42:52;17.75;;;8.63;;
41293;SDS011;27037;52.010;4.446;2024-02-15T03:45:18;22.35;;;9.73;;
41293;SDS011;27037;52.010;4.446;2024-02-15T03:47:45;19.90;;;9.52;;
41293;SDS011;27037;52.010;4.446;2024-02-15T03:50:11;20.83;;;10.27;;
41293;SDS011;27037;52.010;4.446;2024-02-15T03:52:39;25.10;;;10.35;;
41293;SDS011;27037;52.010;4.446;2024-02-15T03:55:06;24.55;;;10.43;;
41293;SDS011;27037;52.010;4.446;2024-02-15T03:57:32;18.58;;;10.20;;
41293;SDS011;27037;52.010;4.446;2024-02-15T03:59:58;23.98;;;10.10;;
41293;SDS011;27037;52.010;4.446;2024-02-15T04:02:25;20.35;;;10.57;;
41293;SDS011;27037;52.010;4.446;2024-02-15T04:04:55;20.15;;;9.65;;
41293;SDS011;27037;52.010;4.446;2024-02-15T04:07:21;21.95;;;10.68;;
41293;SDS011;27037;52.010;4.446;2024-02-15T04:09:49;22.10;;;9.88;;
41293;SDS011;27037;52.010;4.446;2024-02-15T04:12:14;22.42;;;10.13;;
41293;SDS011;27037;52.010;4.446;2024-02-15T04:14:41;19.80;;;9.77;;
41293;SDS011;27037;52.010;4.446;2024-02-15T04:17:13;18.35;;;9.60;;
41293;SDS011;27037;52.010;4.446;2024-02-15T04:19:44;18.52;;;9.98;;
41293;SDS011;27037;52.010;4.446;2024-02-15T04:22:11;14.82;;;9.82;;
41293;SDS011;27037;52.010;4.446;2024-02-15T04:24:41;20.90;;;10.50;;
41293;SDS011;27037;52.010;4.446;2024-02-15T04:27:10;22.80;;;10.30;;
41293;SDS011;27037;52.010;4.446;2024-02-15T04:29:37;20.63;;;11.05;;
41293;SDS011;27037;52.010;4.446;2024-02-15T04:32:05;18.50;;;10.80;;
41293;SDS011;27037;52.010;4.446;2024-02-15T04:34:38;21.95;;;11.52;;
41293;SDS011;27037;52.010;4.446;2024-02-15T04:37:07;21.95;;;12.27;;
41293;SDS011;27037;52.010;4.446;2024-02-15T04:39:35;21.55;;;12.68;;
41293;SDS011;27037;52.010;4.446;2024-02-15T04:42:02;24.58;;;13.20;;
41293;SDS011;27037;52.010;4.446;2024-02-15T04:44:32;23.88;;;13.77;;
41293;SDS011;27037;52.010;4.446;2024-02-15T04:47:00;26.33;;;14.55;;
41293;SDS011;27037;52.010;4.446;2024-02-15T04:49:27;31.00;;;15.43;;
41293;SDS011;27037;52.010;4.446;2024-02-15T04:51:54;24.15;;;14.90;;
41293;SDS011;27037;52.010;4.446;2024-02-15T04:54:19;32.53;;;17.05;;
41293;SDS011;27037;52.010;4.446;2024-02-15T04:56:45;37.45;;;16.85;;
41293;SDS011;27037;52.010;4.446;2024-02-15T04:59:11;30.45;;;16.00;;
41293;SDS011;27037;52.010;4.446;2024-02-15T05:01:40;35.55;;;16.75;;
41293;SDS011;27037;52.010;4.446;2024-02-15T05:04:12;35.10;;;16.48;;
41293;SDS011;27037;52.010;4.446;2024-02-15T05:06:38;31.48;;;15.48;;
41293;SDS011;27037;52.010;4.446;2024-02-15T05:09:05;37.17;;;16.08;;
41293;SDS011;27037;52.010;4.446;2024-02-15T05:11:36;32.20;;;15.82;;
41293;SDS011;27037;52.010;4.446;2024-02-15T05:14:05;35.40;;;15.40;;
41293;SDS011;27037;52.010;4.446;2024-02-15T05:16:32;30.10;;;15.60;;
41293;SDS011;27037;52.010;4.446;2024-02-15T05:19:03;33.17;;;15.25;;
41293;SDS011;27037;52.010;4.446;2024-02-15T05:21:30;31.48;;;14.52;;
41293;SDS011;27037;52.010;4.446;2024-02-15T05:23:55;33.55;;;15.38;;
41293;SDS011;27037;52.010;4.446;2024-02-15T05:26:22;33.28;;;15.07;;
41293;SDS011;27037;52.010;4.446;2024-02-15T05:28:51;31.20;;;14.45;;
41293;SDS011;27037;52.010;4.446;2024-02-15T05:31:17;33.35;;;14.20;;
41293;SDS011;27037;52.010;4.446;2024-02-15T05:33:48;33.63;;;14.25;;
41293;SDS011;27037;52.010;4.446;2024-02-15T05:36:15;28.83;;;13.82;;
41293;SDS011;27037;52.010;4.446;2024-02-15T05:38:45;32.97;;;13.30;;
41293;SDS011;27037;52.010;4.446;2024-02-15T05:41:12;29.27;;;13.35;;
41293;SDS011;27037;52.010;4.446;2024-02-15T05:43:41;27.80;;;12.30;;
41293;SDS011;27037;52.010;4.446;2024-02-15T05:46:07;33.83;;;13.10;;
41293;SDS011;27037;52.010;4.446;2024-02-15T05:48:33;30.80;;;12.80;;
41293;SDS011;27037;52.010;4.446;2024-02-15T05:51:05;23.65;;;12.60;;
41293;SDS011;27037;52.010;4.446;2024-02-15T05:53:31;30.88;;;12.65;;
41293;SDS011;27037;52.010;4.446;2024-02-15T05:56:04;26.02;;;12.57;;
41293;SDS011;27037;52.010;4.446;2024-02-15T05:58:32;25.20;;;12.25;;
41293;SDS011;27037;52.010;4.446;2024-02-15T06:00:58;22.67;;;11.75;;
41293;SDS011;27037;52.010;4.446;2024-02-15T06:03:30;17.48;;;10.10;;
41293;SDS011;27037;52.010;4.446;2024-02-15T06:05:59;18.92;;;10.25;;
41293;SDS011;27037;52.010;4.446;2024-02-15T06:08:27;19.58;;;9.90;;
41293;SDS011;27037;52.010;4.446;2024-02-15T06:10:54;18.30;;;9.68;;
41293;SDS011;27037;52.010;4.446;2024-02-15T06:13:20;17.05;;;9.07;;
41293;SDS011;27037;52.010;4.446;2024-02-15T06:15:47;16.85;;;9.20;;
41293;SDS011;27037;52.010;4.446;2024-02-15T06:18:17;14.50;;;8.45;;
41293;SDS011;27037;52.010;4.446;2024-02-15T06:20:49;15.85;;;9.07;;
41293;SDS011;27037;52.010;4.446;2024-02-15T06:23:16;16.27;;;9.15;;
41293;SDS011;27037;52.010;4.446;2024-02-15T06:25:46;14.40;;;9.20;;
41293;SDS011;27037;52.010;4.446;2024-02-15T06:28:16;14.15;;;8.98;;
41293;SDS011;27037;52.010;4.446;2024-02-15T06:31:04;14.77;;;9.57;;
41293;SDS011;27037;52.010;4.446;2024-02-15T06:33:51;16.42;;;9.50;;
41293;SDS011;27037;52.010;4.446;2024-02-15T06:36:56;16.70;;;10.38;;
41293;SDS011;27037;52.010;4.446;2024-02-15T06:39:40;17.30;;;10.17;;
41293;SDS011;27037;52.010;4.446;2024-02-15T06:42:13;17.20;;;11.10;;
41293;SDS011;27037;52.010;4.446;2024-02-15T06:44:46;16.20;;;11.10;;
41293;SDS011;27037;52.010;4.446;2024-02-15T06:47:13;20.40;;;11.55;;
41293;SDS011;27037;52.010;4.446;2024-02-15T06:49:42;19.23;;;11.45;;
41293;SDS011;27037;52.010;4.446;2024-02-15T06:52:09;24.40;;;12.57;;
41293;SDS011;27037;52.010;4.446;2024-02-15T06:54:37;19.35;;;12.82;;
41293;SDS011;27037;52.010;4.446;2024-02-15T06:57:06;22.88;;;13.23;;
41293;SDS011;27037;52.010;4.446;2024-02-15T06:59:32;25.65;;;13.45;;
41293;SDS011;27037;52.010;4.446;2024-02-15T07:02:01;21.38;;;13.32;;
41293;SDS011;27037;52.010;4.446;2024-02-15T07:04:29;27.15;;;14.35;;
41293;SDS011;27037;52.010;4.446;2024-02-15T07:06:56;23.92;;;13.70;;
41293;SDS011;27037;52.010;4.446;2024-02-15T07:09:22;22.98;;;13.77;;
41293;SDS011;27037;52.010;4.446;2024-02-15T07:11:50;21.17;;;13.23;;
41293;SDS011;27037;52.010;4.446;2024-02-15T07:14:16;24.60;;;13.80;;
41293;SDS011;27037;52.010;4.446;2024-02-15T07:16:48;22.63;;;14.07;;
41293;SDS011;27037;52.010;4.446;2024-02-15T07:19:14;25.40;;;13.57;;
41293;SDS011;27037;52.010;4.446;2024-02-15T07:21:40;25.98;;;14.02;;
41293;SDS011;27037;52.010;4.446;2024-02-15T07:24:06;30.73;;;14.02;;
41293;SDS011;27037;52.010;4.446;2024-02-15T07:26:32;23.58;;;14.15;;
41293;SDS011;27037;52.010;4.446;2024-02-15T07:29:00;25.77;;;14.93;;
41293;SDS011;27037;52.010;4.446;2024-02-15T07:31:28;25.20;;;14.52;;
41293;SDS011;27037;52.010;4.446;2024-02-15T07:33:54;32.28;;;15.32;;
41293;SDS011;27037;52.010;4.446;2024-02-15T07:36:20;31.83;;;14.05;;
41293;SDS011;27037;52.010;4.446;2024-02-15T07:38:47;23.73;;;12.98;;
41293;SDS011;27037;52.010;4.446;2024-02-15T07:41:14;27.42;;;13.20;;
41293;SDS011;27037;52.010;4.446;2024-02-15T07:43:40;23.20;;;12.23;;
41293;SDS011;27037;52.010;4.446;2024-02-15T07:46:06;21.92;;;12.77;;
41293;SDS011;27037;52.010;4.446;2024-02-15T07:48:32;25.08;;;12.70;;
41293;SDS011;27037;52.010;4.446;2024-02-15T07:50:57;22.95;;;11.98;;
41293;SDS011;27037;52.010;4.446;2024-02-15T07:53:23;25.80;;;12.07;;
41293;SDS011;27037;52.010;4.446;2024-02-15T07:55:50;22.15;;;11.50;;
41293;SDS011;27037;52.010;4.446;2024-02-15T07:58:15;21.88;;;11.02;;
41293;SDS011;27037;52.010;4.446;2024-02-15T08:00:43;19.40;;;10.88;;
41293;SDS011;27037;52.010;4.446;2024-02-15T08:03:10;18.75;;;9.95;;
41293;SDS011;27037;52.010;4.446;2024-02-15T08:05:36;18.02;;;10.35;;
41293;SDS011;27037;52.010;4.446;2024-02-15T08:08:03;19.30;;;10.82;;
41293;SDS011;27037;52.010;4.446;2024-02-15T08:10:29;20.98;;;11.10;;
41293;SDS011;27037;52.010;4.446;2024-02-15T08:12:55;18.55;;;10.65;;
41293;SDS011;27037;52.010;4.446;2024-02-15T08:15:23;22.23;;;11.15;;
41293;SDS011;27037;52.010;4.446;2024-02-15T08:17:49;20.25;;;10.90;;
41293;SDS011;27037;52.010;4.446;2024-02-15T08:20:15;19.85;;;10.85;;
41293;SDS011;27037;52.010;4.446;2024-02-15T08:22:46;19.02;;;10.77;;
41293;SDS011;27037;52.010;4.446;2024-02-15T08:25:12;18.27;;;11.02;;
41293;SDS011;27037;52.010;4.446;2024-02-15T08:27:40;19.30;;;10.80;;
41293;SDS011;27037;52.010;4.446;2024-02-15T08:30:10;20.30;;;11.32;;
41293;SDS011;27037;52.010;4.446;2024-02-15T08:32:41;24.25;;;10.77;;
41293;SDS011;27037;52.010;4.446;2024-02-15T08:35:07;23.88;;;11.35;;
41293;SDS011;27037;52.010;4.446;2024-02-15T08:37:35;21.58;;;11.00;;
41293;SDS011;27037;52.010;4.446;2024-02-15T08:40:02;23.40;;;12.30;;
41293;SDS011;27037;52.010;4.446;2024-02-15T08:42:39;21.60;;;11.13;;
41293;SDS011;27037;52.010;4.446;2024-02-15T08:45:08;25.52;;;10.70;;
41293;SDS011;27037;52.010;4.446;2024-02-15T08:47:36;22.25;;;11.18;;
41293;SDS011;27037;52.010;4.446;2024-02-15T08:50:05;21.92;;;12.00;;
41293;SDS011;27037;52.010;4.446;2024-02-15T08:52:34;22.33;;;11.32;;
41293;SDS011;27037;52.010;4.446;2024-02-15T08:55:02;23.52;;;11.27;;
41293;SDS011;27037;52.010;4.446;2024-02-15T08:57:32;22.60;;;10.38;;
41293;SDS011;27037;52.010;4.446;2024-02-15T08:59:58;25.75;;;11.10;;
41293;SDS011;27037;52.010;4.446;2024-02-15T09:02:24;24.35;;;10.30;;
41293;SDS011;27037;52.010;4.446;2024-02-15T09:04:50;26.05;;;10.48;;
41293;SDS011;27037;52.010;4.446;2024-02-15T09:07:15;21.60;;;10.25;;
41293;SDS011;27037;52.010;4.446;2024-02-15T09:09:42;21.60;;;9.88;;
41293;SDS011;27037;52.010;4.446;2024-02-15T09:12:08;20.50;;;9.68;;
41293;SDS011;27037;52.010;4.446;2024-02-15T09:14:34;18.90;;;8.73;;
41293;SDS011;27037;52.010;4.446;2024-02-15T09:17:01;22.05;;;9.88;;
41293;SDS011;27037;52.010;4.446;2024-02-15T09:19:36;23.55;;;9.13;;
41293;SDS011;27037;52.010;4.446;2024-02-15T09:22:02;23.85;;;10.25;;
41293;SDS011;27037;52.010;4.446;2024-02-15T09:24:31;27.08;;;9.80;;
41293;SDS011;27037;52.010;4.446;2024-02-15T09:26:58;23.98;;;10.65;;
41293;SDS011;27037;52.010;4.446;2024-02-15T09:29:28;26.15;;;11.32;;
41293;SDS011;27037;52.010;4.446;2024-02-15T09:32:00;21.23;;;10.85;;
41293;SDS011;27037;52.010;4.446;2024-02-15T09:34:28;20.95;;;10.85;;
41293;SDS011;27037;52.010;4.446;2024-02-15T09:36:54;20.02;;;10.95;;
41293;SDS011;27037;52.010;4.446;2024-02-15T09:39:21;21.48;;;10.93;;
41293;SDS011;27037;52.010;4.446;2024-02-15T09:41:48;20.27;;;10.43;;
41293;SDS011;27037;52.010;4.446;2024-02-15T09:44:20;17.77;;;9.95;;
41293;SDS011;27037;52.010;4.446;2024-02-15T09:46:47;23.25;;;10.35;;
41293;SDS011;27037;52.010;4.446;2024-02-15T09:49:17;21.02;;;10.55;;
41293;SDS011;27037;52.010;4.446;2024-02-15T09:51:43;19.00;;;10.30;;
41293;SDS011;27037;52.010;4.446;2024-02-15T09:54:09;28.60;;;10.32;;
41293;SDS011;27037;52.010;4.446;2024-02-15T09:56:36;18.42;;;9.10;;
41293;SDS011;27037;52.010;4.446;2024-02-15T09:59:03;20.23;;;9.20;;
41293;SDS011;27037;52.010;4.446;2024-02-15T10:01:30;21.13;;;9.43;;
41293;SDS011;27037;52.010;4.446;2024-02-15T10:03:56;17.60;;;8.32;;
41293;SDS011;27037;52.010;4.446;2024-02-15T10:06:24;19.77;;;8.50;;
41293;SDS011;27037;52.010;4.446;2024-02-15T10:08:50;18.02;;;7.80;;
41293;SDS011;27037;52.010;4.446;2024-02-15T10:11:15;14.80;;;7.68;;
41293;SDS011;27037;52.010;4.446;2024-02-15T10:13:41;23.63;;;8.95;;
41293;SDS011;27037;52.010;4.446;2024-02-15T10:16:16;20.65;;;9.57;;
41293;SDS011;27037;52.010;4.446;2024-02-15T10:18:43;15.35;;;9.25;;
41293;SDS011;27037;52.010;4.446;2024-02-15T10:21:09;19.80;;;10.45;;
41293;SDS011;27037;52.010;4.446;2024-02-15T10:23:36;21.55;;;10.32;;
41293;SDS011;27037;52.010;4.446;2024-02-15T10:26:09;17.80;;;10.38;;
41293;SDS011;27037;52.010;4.446;2024-02-15T10:28:44;20.80;;;9.70;;
41293;SDS011;27037;52.010;4.446;2024-02-15T10:31:10;20.77;;;9.75;;
41293;SDS011;27037;52.010;4.446;2024-02-15T10:33:38;18.58;;;8.93;;
41293;SDS011;27037;52.010;4.446;2024-02-15T10:36:07;16.35;;;8.45;;
41293;SDS011;27037;52.010;4.446;2024-02-15T10:38:34;17.30;;;7.45;;
41293;SDS011;27037;52.010;4.446;2024-02-15T10:41:06;13.57;;;7.25;;
41293;SDS011;27037;52.010;4.446;2024-02-15T10:43:33;15.00;;;6.90;;
41293;SDS011;27037;52.010;4.446;2024-02-15T10:45:59;17.48;;;6.97;;
41293;SDS011;27037;52.010;4.446;2024-02-15T10:48:29;15.93;;;6.30;;
41293;SDS011;27037;52.010;4.446;2024-02-15T10:50:55;15.85;;;6.38;;
41293;SDS011;27037;52.010;4.446;2024-02-15T10:53:27;13.73;;;6.20;;
41293;SDS011;27037;52.010;4.446;2024-02-15T10:58:51;14.63;;;6.72;;
41293;SDS011;27037;52.010;4.446;2024-02-15T11:01:35;19.35;;;6.70;;
41293;SDS011;27037;52.010;4.446;2024-02-15T11:04:04;13.88;;;6.88;;
41293;SDS011;27037;52.010;4.446;2024-02-15T11:06:33;18.52;;;6.63;;
41293;SDS011;27037;52.010;4.446;2024-02-15T11:09:03;12.57;;;6.32;;
41293;SDS011;27037;52.010;4.446;2024-02-15T11:11:31;13.13;;;6.18;;
41293;SDS011;27037;52.010;4.446;2024-02-15T11:14:22;12.50;;;7.65;;
41293;SDS011;27037;52.010;4.446;2024-02-15T11:16:48;15.00;;;6.45;;
41293;SDS011;27037;52.010;4.446;2024-02-15T11:21:59;15.35;;;7.20;;
41293;SDS011;27037;52.010;4.446;2024-02-15T11:24:29;13.35;;;8.00;;
41293;SDS011;27037;52.010;4.446;2024-02-15T11:27:01;14.90;;;7.97;;
41293;SDS011;27037;52.010;4.446;2024-02-15T11:29:47;15.20;;;8.52;;
41293;SDS011;27037;52.010;4.446;2024-02-15T11:35:10;17.40;;;10.10;;
41293;SDS011;27037;52.010;4.446;2024-02-15T11:40:14;16.90;;;9.95;;
41293;SDS011;27037;52.010;4.446;2024-02-15T11:43:01;14.43;;;8.90;;
41293;SDS011;27037;52.010;4.446;2024-02-15T11:45:29;16.60;;;8.65;;
41293;SDS011;27037;52.010;4.446;2024-02-15T11:48:02;12.93;;;7.80;;
41293;SDS011;27037;52.010;4.446;2024-02-15T11:50:28;13.02;;;7.25;;
41293;SDS011;27037;52.010;4.446;2024-02-15T11:53:01;11.45;;;6.35;;
41293;SDS011;27037;52.010;4.446;2024-02-15T11:55:34;14.30;;;5.95;;
41293;SDS011;27037;52.010;4.446;2024-02-15T11:58:03;11.82;;;5.65;;
41293;SDS011;27037;52.010;4.446;2024-02-15T12:00:30;12.73;;;5.13;;
41293;SDS011;27037;52.010;4.446;2024-02-15T12:06:00;10.95;;;4.53;;
41293;SDS011;27037;52.010;4.446;2024-02-15T12:08:48;9.50;;;4.70;;
41293;SDS011;27037;52.010;4.446;2024-02-15T12:11:33;10.13;;;4.18;;
41293;SDS011;27037;52.010;4.446;2024-02-15T12:14:17;14.45;;;4.25;;
41293;SDS011;27037;52.010;4.446;2024-02-15T12:17:06;13.18;;;4.28;;
41293;SDS011;27037;52.010;4.446;2024-02-15T12:19:52;11.40;;;4.30;;
41293;SDS011;27037;52.010;4.446;2024-02-15T12:22:42;10.05;;;4.30;;
41293;SDS011;27037;52.010;4.446;2024-02-15T12:25:13;10.68;;;4.47;;
41293;SDS011;27037;52.010;4.446;2024-02-15T12:27:41;9.52;;;3.50;;
41293;SDS011;27037;52.010;4.446;2024-02-15T12:30:08;12.02;;;3.90;;
41293;SDS011;27037;52.010;4.446;2024-02-15T12:32:38;8.15;;;3.70;;
41293;SDS011;27037;52.010;4.446;2024-02-15T12:35:11;10.10;;;3.80;;
41293;SDS011;27037;52.010;4.446;2024-02-15T12:38:03;5.70;;;3.13;;
41293;SDS011;27037;52.010;4.446;2024-02-15T12:40:31;7.28;;;3.10;;
41293;SDS011;27037;52.010;4.446;2024-02-15T12:42:57;4.93;;;2.92;;
41293;SDS011;27037;52.010;4.446;2024-02-15T12:45:25;8.07;;;3.00;;
41293;SDS011;27037;52.010;4.446;2024-02-15T12:47:53;9.02;;;2.90;;
41293;SDS011;27037;52.010;4.446;2024-02-15T12:50:20;6.57;;;2.65;;
41293;SDS011;27037;52.010;4.446;2024-02-15T12:52:47;7.78;;;2.92;;
41293;SDS011;27037;52.010;4.446;2024-02-15T12:57:50;7.72;;;2.60;;
41293;SDS011;27037;52.010;4.446;2024-02-15T13:00:23;6.03;;;2.45;;
41293;SDS011;27037;52.010;4.446;2024-02-15T13:02:54;5.20;;;2.25;;
41293;SDS011;27037;52.010;4.446;2024-02-15T13:05:21;7.03;;;2.20;;
41293;SDS011;27037;52.010;4.446;2024-02-15T13:07:50;7.03;;;2.35;;
41293;SDS011;27037;52.010;4.446;2024-02-15T13:10:16;6.43;;;2.28;;
41293;SDS011;27037;52.010;4.446;2024-02-15T13:12:44;5.50;;;2.55;;
41293;SDS011;27037;52.010;4.446;2024-02-15T13:15:12;8.13;;;2.53;;
41293;SDS011;27037;52.010;4.446;2024-02-15T13:20:20;6.25;;;2.63;;
41293;SDS011;27037;52.010;4.446;2024-02-15T13:22:56;7.70;;;3.10;;
41293;SDS011;27037;52.010;4.446;2024-02-15T13:25:25;6.60;;;3.13;;
41293;SDS011;27037;52.010;4.446;2024-02-15T13:27:51;6.78;;;3.22;;
41293;SDS011;27037;52.010;4.446;2024-02-15T13:30:17;8.15;;;3.60;;
41293;SDS011;27037;52.010;4.446;2024-02-15T13:32:48;8.55;;;3.67;;
41293;SDS011;27037;52.010;4.446;2024-02-15T13:35:15;6.70;;;3.33;;
41293;SDS011;27037;52.010;4.446;2024-02-15T13:37:51;9.20;;;3.88;;
41293;SDS011;27037;52.010;4.446;2024-02-15T13:40:23;9.02;;;4.13;;
41293;SDS011;27037;52.010;4.446;2024-02-15T13:42:51;9.40;;;3.70;;
41293;SDS011;27037;52.010;4.446;2024-02-15T13:45:22;7.07;;;3.45;;
41293;SDS011;27037;52.010;4.446;2024-02-15T13:47:48;9.45;;;3.50;;
41293;SDS011;27037;52.010;4.446;2024-02-15T13:50:15;12.43;;;3.55;;
41293;SDS011;27037;52.010;4.446;2024-02-15T13:52:45;8.30;;;3.22;;
41293;SDS011;27037;52.010;4.446;2024-02-15T13:55:12;8.60;;;3.42;;
41293;SDS011;27037;52.010;4.446;2024-02-15T14:00:13;7.63;;;3.38;;
41293;SDS011;27037;52.010;4.446;2024-02-15T14:02:47;9.43;;;3.63;;
41293;SDS011;27037;52.010;4.446;2024-02-15T14:05:13;8.07;;;3.17;;
41293;SDS011;27037;52.010;4.446;2024-02-15T14:07:39;8.82;;;3.42;;
41293;SDS011;27037;52.010;4.446;2024-02-15T14:10:05;11.55;;;3.75;;
41293;SDS011;27037;52.010;4.446;2024-02-15T14:12:32;9.38;;;3.42;;
41293;SDS011;27037;52.010;4.446;2024-02-15T14:14:58;11.45;;;3.85;;
41293;SDS011;27037;52.010;4.446;2024-02-15T14:17:24;9.55;;;3.33;;
41293;SDS011;27037;52.010;4.446;2024-02-15T14:19:49;10.30;;;3.53;;
41293;SDS011;27037;52.010;4.446;2024-02-15T14:22:15;10.38;;;3.63;;
41293;SDS011;27037;52.010;4.446;2024-02-15T14:24:44;11.40;;;3.72;;
41293;SDS011;27037;52.010;4.446;2024-02-15T14:27:11;7.97;;;3.47;;
41293;SDS011;27037;52.010;4.446;2024-02-15T14:29:37;12.80;;;3.40;;
41293;SDS011;27037;52.010;4.446;2024-02-15T14:32:10;9.18;;;3.17;;
41293;SDS011;27037;52.010;4.446;2024-02-15T14:37:21;8.98;;;3.05;;
41293;SDS011;27037;52.010;4.446;2024-02-15T14:39:47;12.27;;;3.47;;
41293;SDS011;27037;52.010;4.446;2024-02-15T14:42:15;9.63;;;3.33;;
41293;SDS011;27037;52.010;4.446;2024-02-15T14:44:41;8.75;;;3.10;;
41293;SDS011;27037;52.010;4.446;2024-02-15T14:47:08;11.35;;;2.70;;
41293;SDS011;27037;52.010;4.446;2024-02-15T14:49:33;8.85;;;3.17;;
41293;SDS011;27037;52.010;4.446;2024-02-15T14:51:59;8.00;;;3.20;;
41293;SDS011;27037;52.010;4.446;2024-02-15T14:54:26;12.15;;;3.05;;
41293;SDS011;27037;52.010;4.446;2024-02-15T14:56:52;7.15;;;3.00;;
41293;SDS011;27037;52.010;4.446;2024-02-15T14:59:19;12.95;;;3.38;;
41293;SDS011;27037;52.010;4.446;2024-02-15T15:01:44;12.38;;;3.22;;